Pagina principale
METAR-TAF:

METAR-TAF

Aeroporti :

Aeroporto di Portorose

Portorose, Slovenia

latitudine: 45-31N, longitudine: 013-34E, altezza: 95 m

Osservazione

Il bollettino è stato emesso 37 minuti fa, alle 23:30 UTC
Vento 6 kt da est/sud-est
Temperature 16°C
Umidità 88%
Pressione 1019 hPa
Visibilità 10 km o più

METAR: LJPZ 142330Z AUTO 12006KT 9999 NCD 16/14 Q1019

Ora: 02:07 (00:07 UTC)

Previsione

Il bollettino è stato emesso 1 ora e 7 minuti fa, alle 23:00 UTC
Previsione valida dal 15 alle 00 UTC al 15 alle 09 UTC
Vento 5 kt da est/sud-est
Visibilità 10 km o più
nessuna nube inferiore a 1500 m e nessun cumulonembo

TAF: LJPZ 142300Z 1500/1509 12005KT CAVOK

Osservazioni e previsioni meteorologiche di più di 4000 aeroporti (messaggi METAR e TAF).

Le stazioni disponibili sono rappresentate dai dischi gialli e rossi sulla carta.

Puntare il mouse per vedere il nome della stazione.

Clicca sopra per visualizzare le osservazioni e previsioni meteorologiche.

Per cambiare la mappa : fare clic sui pulsanti verdi con una croce nera per ingrandire, il pulsante verde con un trattino per diminuire, o sulla freccia verde per le mappe adiacenti.


METAR-TAF: